Paragould, Arkansas
Current Conditions -  °F | °C
As of 11:55 PM on Saturday 25 Oct 2014 (Local Time) from K4M9 Reporting Station
Haze Haze  
Wind Chill: 63°   Ceiling: Unl
Heat Index: 63°   Visibility: 3mi
Dew Point: 63°   Wind: 3mph
Humidity: 100%   Direction: 250°WSW
Pressure: 29.99"   Gusts: NA
Location:  36.06°N, 90.49°W
Report Text: K4M9 260455Z AUTO 25003KT 3SM BR CLR 17/17 A2999 RMK AO2
Loading
Personal Weather Stations






























Interactive Weather Map
Tropical Storm Tracking
New forecast layout! Learn more

10-Day Weather Forecast

Advertisements
Track Severe Weather on mobile